Main page
Satellite images Climate Cyclones Lightning AirportsFAQ Languages Contact Newsletter About
Weather : Europe Africa North America South America Asia Australia-Oceania Others

, Penang, Penang International Airport

48601

latitude: , longitude: Malaysia, elevation: 05-18N m


METAR: WMKP 221030Z VRB02KT 9000 TS FEW017CB SCT140 BKN270 29/25 Q1005 NOSIG